Newport News Williamsburg International Airport Newport News US
ICAO: KPHF
IATA: PHF
Category: Large
Scheduled Services: Yes

Elevation: 42 ft
TransAlt. 18000 ft.

Airport Communications:
NORFOLK APP:125.7
ATIS:128.65
CLNC DEL:121.65
CTAF:118.7
NORFOLK DEP:124.9
GND:121.9
LEESBURG RDO:122.65
TWR:124.9
UNICOM:122.95

KPHF Zoom In..

Runways:

(A) RW 02 length 6526 ft width 150 ft
LOC 109.30 / hdg 22

(B) RW 07 length 8003 ft width 150 ft
ILS 110.10 / hdg 67

(C) RW 20 length 6526 ft width 150 ft
LOC 109.30 / hdg 202

(D) RW 25 length 8003 ft width 150 ft
ILS 110.10 / hdg 247

Location; KPHF
Day. 23 / Time. 15.30 Zulu
* Altimeter: 29.73
* Temperature: 18° c. 64.4°f.
* Wind from: 260° Speed 17 kn with Gusts up to 28 kn.
Dewpoint: 16° c.
Visibility: 1 m.
Clouds: Scattered 1100 ft.
Clouds: Broken 1700 ft.
Clouds: Overcast 4500 ft.
Conditions: Rain.Conditions: Mist.

KPHF 231530Z 26017G28KT 1 3/4SM RA BR SCT011 BKN017 OVC045 18/16 A2973 RMK AO2 PK WND 21033/1457 RAB1457 PRESRR P0007 T01780161


Wind From 260°
Speed 17 kn.

YouTube Music Video
 
jpsmedia.com for Web Design  worldairports.se 2018   terms of use